Aeroporto :
LOGIN :

Iscrizione | Disclaimer

   EN    FR    IT 

 










Sommario :    VFR   VFR Marginale   IFR   IFR Intensivo   IFR Molto Intensivo
Visibilità : 
Base nubi : 
>= 8 km
>= 3000ft
5 / 8 km
1000 / 3000 ft
1500m / 5 km
500 / 1000 ft
800 / 1500m
200 / 500 ft
< 800m
< 200 ft
Simboli :   Temporali  Nebbia  Neve Forte  Precipitazioni Forti  Vento > 20 kt
SIGMETs :   Varie  Temporali  Ghiacco  Turbolenza  Onda orograficha  Ceneri Vulcaniche






- Altitudine del aeroporto : 909 ft
- Codice IATA : KSF


EDVK - Kassel Calden

ULTIMO METAR :
  • 071520Z 23006KT 170V280 CAVOK 20/06 Q1018

METARs OBSOLETI :
  • 071450Z 25006KT 210V290 CAVOK 18/07 Q1018
  • 071420Z 26006KT 210V310 CAVOK 18/06 Q1018
  • 071350Z 25008KT CAVOK 19/07 Q1019
  • 071320Z 26007KT 220V300 CAVOK 18/06 Q1019
  • 071250Z 25008KT CAVOK 18/06 Q1019

TAF TAF EDVK
Valido dal 07 a 15 ore il 08 a 00 ore UTC


071400Z 0715/0724 28010KT CAVOK
BECMG 0719/0721 25005KT
PROB30
TEMPO 0722/0724 RA



MetMap, La meteo Aeronautica in un colpo d'occhio ! - Copyright ORBIFLY Dicembre 2007 - Disclaimer

ORBIFLY MET'MAP TEAM :

Programmazione e sviluppo : Alexandra Zaïnal
Concezione : Baudouin d'Aumeries
Aiuto per la programmazione : Marc-Olivier Méhu
Supporto tecnico e logistico : Manuel Goepfert
Aiuto per la traduzione : Arnaldo La Scala

Contatto : metmap@orbifly.com




FONTI E CREDITI :

   NOAA